Time;durP1;ratioP1;P1;durP2;ratioP2;P2;SDS_P1;SDS_P2;PMS_P1;PMS_P2;Temp;Humidity;BMP_temperature;BMP_pressure;BME280_temperature;BME280_humidity;BME280_pressure;Samples;Min_cycle;Max_cycle;Signal;HPM_P1;HPM_P2
2023/02/15 00:01:16;;;;;;;2.38;2.17;;;3.70;75.30;;;;;;5055422;28;20033;-53
2023/02/15 00:03:41;;;;;;;2.35;2.15;;;3.70;75.20;;;;;;5055805;28;20025;-53
2023/02/15 00:06:07;;;;;;;2.30;2.10;;;3.70;75.20;;;;;;5055600;28;20040;-63
2023/02/15 00:08:33;;;;;;;2.65;2.10;;;3.70;75.00;;;;;;5054613;28;20036;-63
2023/02/15 00:11:11;;;;;;;2.65;2.45;;;3.70;74.90;;;;;;5054918;28;20116;-48
2023/02/15 00:13:38;;;;;;;2.40;2.20;;;3.70;74.70;;;;;;5055059;28;20100;-50
2023/02/15 00:16:07;;;;;;;2.20;2.00;;;3.70;74.70;;;;;;5053636;28;20021;-53
2023/02/15 00:18:33;;;;;;;2.30;2.10;;;3.70;74.60;;;;;;5017839;28;20026;-50
2023/02/15 00:21:02;;;;;;;2.35;2.20;;;3.70;74.50;;;;;;5035374;28;20087;-51
2023/02/15 00:23:28;;;;;;;2.53;2.33;;;3.70;74.50;;;;;;5035537;28;20053;-52
2023/02/15 00:26:06;;;;;;;2.58;2.38;;;3.70;74.30;;;;;;5035444;28;20060;-59
2023/02/15 00:28:32;;;;;;;2.13;2.03;;;3.70;74.30;;;;;;5034943;28;20376;-59
2023/02/15 00:31:08;;;;;;;2.78;2.47;;;3.70;74.30;;;;;;5035113;28;20037;-59
2023/02/15 00:33:35;;;;;;;2.03;1.92;;;3.70;74.10;;;;;;5034710;28;20021;-60
2023/02/15 00:36:02;;;;;;;2.40;2.20;;;3.70;73.90;;;;;;5034640;28;20091;-60
2023/02/15 00:38:29;;;;;;;2.28;2.10;;;3.70;73.90;;;;;;5034537;28;20025;-59
2023/02/15 00:40:55;;;;;;;2.10;1.90;;;3.70;73.80;;;;;;5034627;28;20037;-59
2023/02/15 00:43:21;;;;;;;2.30;2.13;;;3.70;73.80;;;;;;5034764;28;20065;-59
2023/02/15 00:45:47;;;;;;;2.17;2.08;;;3.70;73.60;;;;;;5038018;28;20064;-59
2023/02/15 00:48:12;;;;;;;2.40;2.20;;;3.70;73.50;;;;;;5054358;28;20033;-61
2023/02/15 00:50:38;;;;;;;2.50;2.30;;;3.80;73.40;;;;;;5054605;28;20032;-59
2023/02/15 00:53:04;;;;;;;2.78;2.25;;;3.70;73.30;;;;;;5053722;28;20094;-60
2023/02/15 00:55:30;;;;;;;2.05;1.90;;;3.70;73.10;;;;;;5053814;28;20061;-60
2023/02/15 00:57:55;;;;;;;2.33;2.20;;;3.70;73.10;;;;;;5053426;28;20032;-60
2023/02/15 01:00:21;;;;;;;2.10;2.00;;;3.80;73.10;;;;;;5054009;28;20467;-63
2023/02/15 01:02:47;;;;;;;2.33;2.10;;;3.70;73.00;;;;;;5052892;28;20083;-63
2023/02/15 01:05:12;;;;;;;2.00;1.90;;;3.80;72.90;;;;;;5054268;28;20456;-53
2023/02/15 01:07:38;;;;;;;2.38;2.17;;;3.70;72.90;;;;;;5054047;28;20044;-52
2023/02/15 01:10:06;;;;;;;2.10;2.00;;;3.70;72.70;;;;;;5054256;28;20530;-51
2023/02/15 01:12:32;;;;;;;2.40;2.20;;;3.70;72.80;;;;;;5054559;28;20107;-51
2023/02/15 01:14:57;;;;;;;2.38;2.17;;;3.70;72.80;;;;;;5054169;28;20502;-50
2023/02/15 01:17:23;;;;;;;2.20;2.10;;;3.70;72.80;;;;;;5053837;28;20040;-59
2023/02/15 01:19:49;;;;;;;1.98;1.88;;;3.70;72.60;;;;;;5054187;28;20032;-60
2023/02/15 01:22:14;;;;;;;2.38;2.17;;;3.70;72.60;;;;;;5054651;28;20052;-59
2023/02/15 01:24:40;;;;;;;2.42;2.25;;;3.70;72.60;;;;;;5053346;28;20086;-60
2023/02/15 01:27:06;;;;;;;2.90;1.92;;;3.70;72.50;;;;;;5053881;28;20033;-60
2023/02/15 01:29:31;;;;;;;2.35;2.00;;;3.70;72.40;;;;;;5053156;28;20504;-60
2023/02/15 01:31:57;;;;;;;2.67;2.47;;;3.70;72.20;;;;;;5054434;28;20025;-53
2023/02/15 01:34:23;;;;;;;2.13;2.00;;;3.70;72.00;;;;;;5054107;28;20444;-50
2023/02/15 01:36:48;;;;;;;2.00;1.90;;;3.70;71.90;;;;;;5054182;28;20078;-60
2023/02/15 01:39:14;;;;;;;2.13;1.90;;;3.70;71.80;;;;;;5054033;28;20083;-59
2023/02/15 01:41:40;;;;;;;2.05;1.95;;;3.70;71.70;;;;;;5053976;28;20024;-60
2023/02/15 01:44:43;;;;;;;2.10;2.00;;;3.70;71.70;;;;;;5053744;28;20033;-60
2023/02/15 01:47:20;;;;;;;2.00;1.90;;;3.60;71.50;;;;;;5053788;28;20021;-63
2023/02/15 01:49:47;;;;;;;2.17;1.98;;;3.70;71.70;;;;;;5053536;28;20045;-63
2023/02/15 01:52:15;;;;;;;1.80;1.70;;;3.60;71.80;;;;;;5053922;28;20371;-63
2023/02/15 01:54:43;;;;;;;2.25;2.05;;;3.60;71.80;;;;;;5053562;28;20087;-63
2023/02/15 01:57:14;;;;;;;1.80;1.70;;;3.60;71.70;;;;;;5053215;28;20029;-60
2023/02/15 01:59:42;;;;;;;1.92;1.80;;;3.60;71.70;;;;;;5054096;28;20037;-60
2023/02/15 02:02:12;;;;;;;2.40;1.85;;;3.60;71.60;;;;;;5059172;28;20029;-61
2023/02/15 02:04:48;;;;;;;2.85;1.90;;;3.70;71.60;;;;;;5074111;28;20036;-60
2023/02/15 02:07:16;;;;;;;2.05;1.90;;;3.70;71.30;;;;;;5077883;28;20033;-59
2023/02/15 02:09:44;;;;;;;1.90;1.80;;;3.70;71.30;;;;;;5077803;28;20044;-60
2023/02/15 02:12:10;;;;;;;2.00;1.90;;;3.60;71.20;;;;;;5077163;28;20062;-60
2023/02/15 02:14:37;;;;;;;1.88;1.77;;;3.70;71.30;;;;;;5077575;28;20028;-60
2023/02/15 02:17:21;;;;;;;2.28;1.77;;;3.70;71.00;;;;;;5077664;28;20032;-60
2023/02/15 02:20:09;;;;;;;2.00;1.90;;;3.70;70.80;;;;;;5077193;28;20035;-60
2023/02/15 02:22:59;;;;;;;1.98;1.88;;;3.70;70.80;;;;;;5077442;28;20049;-61
2023/02/15 02:25:43;;;;;;;1.90;1.80;;;3.70;71.10;;;;;;5076815;28;20471;-61
2023/02/15 02:28:20;;;;;;;1.90;1.80;;;3.60;70.80;;;;;;5076860;28;20048;-61
2023/02/15 02:31:20;;;;;;;1.85;1.75;;;3.70;70.70;;;;;;5077570;28;20028;-52
2023/02/15 02:33:51;;;;;;;1.65;1.55;;;3.70;70.70;;;;;;5076875;28;20105;-52
2023/02/15 02:36:20;;;;;;;1.90;1.80;;;3.60;70.90;;;;;;5077317;28;20025;-63
2023/02/15 02:39:03;;;;;;;1.70;1.60;;;3.60;70.60;;;;;;5077405;28;20359;-63
2023/02/15 02:41:48;;;;;;;1.80;1.70;;;3.60;70.60;;;;;;5077240;28;20025;-62
2023/02/15 02:44:21;;;;;;;1.90;1.80;;;3.60;71.20;;;;;;5076719;28;20086;-62
2023/02/15 02:47:24;;;;;;;1.70;1.63;;;3.60;70.50;;;;;;5076669;28;20351;-51
2023/02/15 02:49:58;;;;;;;1.88;1.77;;;3.60;70.30;;;;;;5076823;28;20033;-53
2023/02/15 02:52:43;;;;;;;2.40;2.20;;;3.60;70.20;;;;;;5077242;28;20025;-60
2023/02/15 02:55:21;;;;;;;2.85;1.98;;;3.60;69.60;;;;;;5076038;28;20029;-60
2023/02/15 02:58:05;;;;;;;1.90;1.80;;;3.60;69.40;;;;;;5076374;28;20479;-60
2023/02/15 03:00:36;;;;;;;1.83;1.73;;;3.60;69.50;;;;;;5062401;28;20510;-60
2023/02/15 03:03:11;;;;;;;1.90;1.80;;;3.60;69.40;;;;;;5056706;28;20116;-60
2023/02/15 03:05:41;;;;;;;2.10;2.00;;;3.60;69.10;;;;;;5056598;28;20383;-60
2023/02/15 03:08:09;;;;;;;2.05;1.90;;;3.60;69.20;;;;;;5055930;28;20037;-60
2023/02/15 03:10:36;;;;;;;2.20;1.90;;;3.60;69.10;;;;;;5056467;28;20036;-59
2023/02/15 03:13:02;;;;;;;2.05;1.95;;;3.60;68.90;;;;;;5056466;28;20037;-59
2023/02/15 03:18:29;;;;;;;1.88;1.77;;;3.60;68.80;;;;;;5054526;28;20040;-60
2023/02/15 03:20:55;;;;;;;1.98;1.88;;;3.60;68.90;;;;;;5056096;28;20552;-59
2023/02/15 03:23:24;;;;;;;2.00;1.90;;;3.60;69.20;;;;;;5056851;28;20060;-59
2023/02/15 03:26:00;;;;;;;2.40;2.20;;;3.60;69.20;;;;;;5055094;28;20022;-60
2023/02/15 03:28:33;;;;;;;2.97;2.00;;;3.60;69.20;;;;;;5056315;28;20037;-59
2023/02/15 03:31:04;;;;;;;1.90;1.80;;;3.60;69.30;;;;;;5055777;28;20029;-60
2023/02/15 03:33:30;;;;;;;2.10;1.80;;;3.60;69.50;;;;;;5056109;28;20025;-59
2023/02/15 03:36:35;;;;;;;2.28;2.10;;;3.60;69.60;;;;;;5055756;28;20040;-60
2023/02/15 03:39:22;;;;;;;2.00;1.90;;;3.60;69.70;;;;;;5055992;28;20083;-59
2023/02/15 03:42:12;;;;;;;2.22;2.00;;;3.60;70.40;;;;;;5073242;28;20024;-60
2023/02/15 03:44:47;;;;;;;2.17;2.00;;;3.60;69.90;;;;;;5075874;28;20028;-59
2023/02/15 03:47:17;;;;;;;2.10;1.90;;;3.60;70.10;;;;;;5076125;28;20033;-60
2023/02/15 03:49:59;;;;;;;2.20;2.05;;;3.60;70.10;;;;;;5076025;28;20426;-60
2023/02/15 03:52:27;;;;;;;1.98;1.88;;;3.60;70.20;;;;;;5075048;28;20035;-60
2023/02/15 03:54:53;;;;;;;2.00;1.90;;;3.60;70.00;;;;;;5064411;28;20055;-60
2023/02/15 04:03:14;;;;;;;2.17;2.03;;;3.60;70.00;;;;;;5055322;28;20039;-60
2023/02/15 04:05:42;;;;;;;2.00;1.90;;;3.50;69.80;;;;;;5055232;28;20029;-60
2023/02/15 04:08:09;;;;;;;2.33;2.17;;;3.50;69.60;;;;;;5055396;28;20079;-59
2023/02/15 04:10:53;;;;;;;2.28;2.00;;;3.50;69.50;;;;;;5055197;28;20556;-60
2023/02/15 04:13:23;;;;;;;2.10;2.00;;;3.50;69.40;;;;;;5055318;28;20091;-60
2023/02/15 04:16:05;;;;;;;2.28;2.10;;;3.50;69.60;;;;;;5055487;28;20033;-50
2023/02/15 04:26:55;;;;;;;2.70;1.92;;;3.50;69.60;;;;;;5074743;28;20036;-52
2023/02/15 04:29:22;;;;;;;2.78;2.40;;;3.50;69.90;;;;;;5074695;28;20057;-52
2023/02/15 04:31:49;;;;;;;2.42;2.22;;;3.40;69.70;;;;;;5074804;28;20028;-48
2023/02/15 04:34:15;;;;;;;2.00;1.90;;;3.50;70.00;;;;;;5074694;28;20028;-48
2023/02/15 04:36:41;;;;;;;2.28;2.10;;;3.50;69.90;;;;;;5074934;28;20094;-48
2023/02/15 04:39:08;;;;;;;2.00;1.90;;;3.50;69.70;;;;;;5074251;28;20109;-50
2023/02/15 04:41:34;;;;;;;2.30;2.10;;;3.50;69.80;;;;;;5075163;28;20478;-63
2023/02/15 04:44:00;;;;;;;2.17;2.08;;;3.40;69.80;;;;;;5074515;28;20505;-62
2023/02/15 04:46:27;;;;;;;2.08;1.98;;;3.40;69.60;;;;;;5074286;28;20024;-62
2023/02/15 04:48:53;;;;;;;2.13;2.03;;;3.50;69.80;;;;;;5074576;28;20071;-63
2023/02/15 04:51:19;;;;;;;2.47;2.28;;;3.40;69.70;;;;;;5074782;28;20060;-61
2023/02/15 04:53:44;;;;;;;2.55;2.20;;;3.50;70.00;;;;;;5061590;28;20045;-61
2023/02/15 04:56:10;;;;;;;3.50;2.50;;;3.50;69.90;;;;;;5054640;28;20337;-49
2023/02/15 04:58:36;;;;;;;2.17;2.08;;;3.50;69.70;;;;;;5054778;28;20025;-50
2023/02/15 05:01:02;;;;;;;2.42;2.22;;;3.50;69.90;;;;;;5054047;28;20025;-60
2023/02/15 05:03:28;;;;;;;2.50;2.30;;;3.50;69.80;;;;;;5054383;28;20072;-60
2023/02/15 05:05:54;;;;;;;2.40;2.20;;;3.50;69.60;;;;;;5054571;28;20418;-60
2023/02/15 05:08:20;;;;;;;2.38;2.17;;;3.50;69.70;;;;;;5054012;28;20519;-59
2023/02/15 05:10:48;;;;;;;2.50;2.00;;;3.50;69.50;;;;;;5054425;28;20476;-62
2023/02/15 05:13:14;;;;;;;2.22;2.03;;;3.50;69.50;;;;;;5054220;28;20021;-62
2023/02/15 05:15:40;;;;;;;2.38;2.08;;;3.50;69.70;;;;;;5054312;28;20029;-62
2023/02/15 05:18:07;;;;;;;2.00;1.90;;;3.40;69.50;;;;;;5053847;28;20021;-62
2023/02/15 05:20:33;;;;;;;2.40;2.20;;;3.40;69.40;;;;;;5053932;28;20379;-62
2023/02/15 05:22:58;;;;;;;2.38;2.20;;;3.50;69.20;;;;;;5053605;28;20056;-62
2023/02/15 05:28:19;;;;;;;2.60;2.40;;;3.50;69.20;;;;;;5053748;28;20056;-48
2023/02/15 05:30:46;;;;;;;2.30;2.20;;;3.40;69.10;;;;;;5054152;28;20425;-48
2023/02/15 05:33:12;;;;;;;2.20;2.10;;;3.50;69.40;;;;;;5053284;28;20058;-51
2023/02/15 05:35:37;;;;;;;2.38;2.17;;;3.40;69.00;;;;;;5054207;28;20021;-62
2023/02/15 05:38:03;;;;;;;2.60;2.40;;;3.40;69.00;;;;;;5054259;28;20029;-63
2023/02/15 05:40:29;;;;;;;3.50;2.38;;;3.40;69.20;;;;;;5055203;28;20056;-61
2023/02/15 05:42:56;;;;;;;2.35;2.10;;;3.40;69.00;;;;;;5057836;28;20551;-61
2023/02/15 05:45:22;;;;;;;2.45;2.25;;;3.40;68.80;;;;;;5058288;28;20519;-60
2023/02/15 05:47:47;;;;;;;2.50;2.30;;;3.40;68.90;;;;;;5058045;28;20025;-60
2023/02/15 05:50:13;;;;;;;1.95;1.85;;;3.40;68.70;;;;;;5057722;28;20036;-60
2023/02/15 05:52:39;;;;;;;2.10;2.00;;;3.40;68.90;;;;;;5057393;28;20037;-61
2023/02/15 05:55:05;;;;;;;2.33;2.13;;;3.50;69.00;;;;;;5058021;28;20082;-61
2023/02/15 05:57:31;;;;;;;2.35;2.13;;;3.50;69.00;;;;;;5058063;28;20025;-61
2023/02/15 05:59:57;;;;;;;2.20;2.10;;;3.50;69.00;;;;;;5057223;28;20467;-61
2023/02/15 06:02:22;;;;;;;1.83;1.73;;;3.50;69.60;;;;;;5058543;28;20341;-59
2023/02/15 06:04:49;;;;;;;2.10;2.00;;;3.50;69.00;;;;;;5057421;28;20039;-59
2023/02/15 06:07:14;;;;;;;2.22;2.13;;;3.50;68.90;;;;;;5057569;28;20025;-51
2023/02/15 06:09:40;;;;;;;2.30;2.10;;;3.50;68.90;;;;;;5057907;28;20345;-53
2023/02/15 06:12:06;;;;;;;2.15;2.05;;;3.60;68.90;;;;;;5057489;28;20568;-60
2023/02/15 06:14:31;;;;;;;2.25;2.10;;;3.50;68.80;;;;;;5057828;28;20043;-59
2023/02/15 06:16:57;;;;;;;2.47;2.28;;;3.50;68.70;;;;;;5057599;28;20031;-59
2023/02/15 06:19:22;;;;;;;2.30;2.10;;;3.50;68.60;;;;;;5057327;28;20021;-60
2023/02/15 06:21:49;;;;;;;2.47;2.25;;;3.60;68.60;;;;;;5056218;28;20049;-59
2023/02/15 06:24:14;;;;;;;2.83;1.90;;;3.50;68.60;;;;;;5057685;28;20025;-60
2023/02/15 06:26:40;;;;;;;2.20;2.10;;;3.60;68.70;;;;;;5057705;28;20104;-52
2023/02/15 06:29:06;;;;;;;2.83;2.35;;;3.60;68.60;;;;;;5056679;28;20029;-52
2023/02/15 06:31:31;;;;;;;1.95;1.85;;;3.60;68.70;;;;;;5054058;28;20036;-49
2023/02/15 06:34:00;;;;;;;2.00;1.90;;;3.60;68.40;;;;;;5037511;28;20025;-49
2023/02/15 06:36:28;;;;;;;2.53;2.00;;;3.60;68.50;;;;;;5036951;28;20029;-49
2023/02/15 06:38:54;;;;;;;2.08;1.98;;;3.60;68.50;;;;;;5036895;28;20017;-51
2023/02/15 06:41:20;;;;;;;2.22;2.13;;;3.60;68.50;;;;;;5037614;28;20111;-51
2023/02/15 06:43:46;;;;;;;2.03;1.83;;;3.60;68.50;;;;;;5052143;28;20052;-53
2023/02/15 06:46:11;;;;;;;2.38;2.17;;;3.60;68.40;;;;;;5054526;28;20036;-53
2023/02/15 06:48:37;;;;;;;9.27;6.57;;;3.60;68.30;;;;;;5056905;28;20033;-51
2023/02/15 06:51:03;;;;;;;4.85;3.65;;;3.60;69.10;;;;;;5056785;28;20068;-49
2023/02/15 06:53:29;;;;;;;3.10;2.80;;;3.60;68.40;;;;;;5056916;28;20079;-51
2023/02/15 06:56:08;;;;;;;2.50;2.30;;;3.60;68.30;;;;;;5056170;28;20467;-51
2023/02/15 06:58:37;;;;;;;2.10;2.00;;;3.70;68.20;;;;;;5056404;28;20135;-52
2023/02/15 07:01:04;;;;;;;2.40;2.15;;;3.70;68.10;;;;;;5056771;28;20108;-49
2023/02/15 07:03:30;;;;;;;2.65;2.45;;;3.70;68.10;;;;;;5056416;28;20464;-51
2023/02/15 07:05:57;;;;;;;2.25;2.13;;;3.70;68.00;;;;;;5055673;28;20064;-51
2023/02/15 07:08:24;;;;;;;3.03;2.58;;;3.70;68.10;;;;;;5056347;28;20029;-50
2023/02/15 07:10:51;;;;;;;2.42;2.22;;;3.80;67.90;;;;;;5056260;28;20116;-50
2023/02/15 07:13:17;;;;;;;2.40;2.20;;;3.70;67.50;;;;;;5054271;28;20033;-52
2023/02/15 07:15:43;;;;;;;2.22;2.13;;;3.70;67.00;;;;;;5056603;28;20108;-54
2023/02/15 07:18:10;;;;;;;2.50;2.30;;;3.80;67.30;;;;;;5056507;28;20029;-52
2023/02/15 07:20:36;;;;;;;2.20;2.08;;;3.80;67.00;;;;;;5056040;28;20403;-53
2023/02/15 07:23:03;;;;;;;2.90;2.22;;;3.80;67.30;;;;;;5056413;28;20144;-52
2023/02/15 07:25:28;;;;;;;2.83;2.60;;;3.80;67.20;;;;;;5055745;28;20044;-54
2023/02/15 07:27:58;;;;;;;2.30;2.20;;;3.80;67.00;;;;;;5056135;28;20371;-54
2023/02/15 07:30:24;;;;;;;2.65;2.10;;;3.90;67.00;;;;;;5056264;28;20029;-49
2023/02/15 07:35:34;;;;;;;2.50;2.20;;;3.90;66.70;;;;;;5055502;28;20506;-52
2023/02/15 07:38:00;;;;;;;2.30;2.10;;;3.90;66.70;;;;;;5055689;28;20025;-51
2023/02/15 07:40:26;;;;;;;2.05;1.95;;;3.90;67.30;;;;;;5055693;28;20021;-53
2023/02/15 07:42:54;;;;;;;2.30;2.10;;;3.90;66.80;;;;;;5056102;28;20036;-49
2023/02/15 07:45:20;;;;;;;2.38;2.17;;;4.00;66.60;;;;;;5055727;28;20029;-54
2023/02/15 07:47:47;;;;;;;2.20;2.03;;;4.00;67.00;;;;;;5055937;28;20420;-52
2023/02/15 07:50:12;;;;;;;2.72;2.13;;;4.00;67.10;;;;;;5055815;28;20036;-50
2023/02/15 07:52:38;;;;;;;2.50;2.30;;;4.10;67.30;;;;;;5055956;28;20041;-51
2023/02/15 07:55:04;;;;;;;2.50;2.30;;;4.10;67.10;;;;;;5056005;28;20051;-51
2023/02/15 07:57:30;;;;;;;2.10;2.00;;;4.10;67.00;;;;;;5055289;28;20032;-54
2023/02/15 07:59:56;;;;;;;3.03;2.42;;;4.20;67.20;;;;;;5054884;28;20024;-52
2023/02/15 08:02:22;;;;;;;2.25;2.05;;;4.10;67.40;;;;;;5055039;28;20414;-51
2023/02/15 08:04:47;;;;;;;2.33;2.22;;;4.20;67.10;;;;;;5055158;28;20033;-52
2023/02/15 08:07:13;;;;;;;2.63;2.13;;;4.20;67.00;;;;;;5055406;28;20025;-51
2023/02/15 08:13:01;;;;;;;3.25;2.53;;;4.30;66.30;;;;;;5054860;28;20028;-52
2023/02/15 08:15:26;;;;;;;2.53;2.33;;;4.30;66.40;;;;;;5054334;28;20391;-54
2023/02/15 08:17:52;;;;;;;2.40;2.20;;;4.30;66.20;;;;;;5055636;28;20079;-50
2023/02/15 08:20:17;;;;;;;2.55;2.35;;;4.40;66.50;;;;;;5055119;28;20021;-50
2023/02/15 08:22:43;;;;;;;2.50;2.30;;;4.40;66.20;;;;;;5054500;28;20427;-53
2023/02/15 08:25:08;;;;;;;3.00;2.60;;;4.40;65.90;;;;;;5054541;28;20072;-53
2023/02/15 08:27:34;;;;;;;2.75;2.50;;;4.50;66.10;;;;;;5054610;28;20037;-52
2023/02/15 08:30:00;;;;;;;3.42;2.60;;;4.50;66.10;;;;;;5054917;28;20439;-51
2023/02/15 08:32:26;;;;;;;2.67;2.47;;;4.50;65.70;;;;;;5054420;28;20074;-51
2023/02/15 08:34:51;;;;;;;2.50;2.30;;;4.60;65.50;;;;;;5053996;28;20388;-55
2023/02/15 08:37:17;;;;;;;2.50;2.30;;;4.60;65.30;;;;;;5054189;28;20033;-53
2023/02/15 08:39:43;;;;;;;2.63;2.35;;;4.60;65.10;;;;;;5054876;28;20036;-52
2023/02/15 08:42:08;;;;;;;2.95;2.67;;;4.60;64.90;;;;;;5054504;28;20411;-52
2023/02/15 08:44:34;;;;;;;2.75;2.30;;;4.60;64.80;;;;;;5054257;28;20028;-49
2023/02/15 08:47:03;;;;;;;2.53;2.33;;;4.70;65.40;;;;;;5054684;28;20408;-53
2023/02/15 08:49:28;;;;;;;2.70;2.50;;;4.70;64.60;;;;;;5054054;28;20029;-50
2023/02/15 08:51:54;;;;;;;3.13;2.33;;;4.70;64.60;;;;;;5054051;28;20047;-49
2023/02/15 08:54:21;;;;;;;2.72;2.50;;;4.70;64.50;;;;;;5054390;28;20059;-51
2023/02/15 08:56:47;;;;;;;3.13;2.42;;;4.80;64.40;;;;;;5053865;28;20021;-53
2023/02/15 08:59:23;;;;;;;2.47;2.20;;;4.80;64.00;;;;;;5054031;28;20439;-53
2023/02/15 09:01:50;;;;;;;2.40;2.20;;;4.80;63.70;;;;;;5054634;28;20112;-51
2023/02/15 09:04:17;;;;;;;2.50;2.30;;;4.70;63.60;;;;;;5054189;28;20032;-53
2023/02/15 09:06:44;;;;;;;3.10;2.47;;;4.70;63.50;;;;;;5054158;28;20033;-51
2023/02/15 09:09:11;;;;;;;2.85;2.40;;;4.70;63.30;;;;;;5053896;28;20410;-53
2023/02/15 09:11:40;;;;;;;2.63;2.20;;;4.60;63.20;;;;;;5054061;28;20029;-51
2023/02/15 09:14:09;;;;;;;2.20;2.00;;;4.60;63.50;;;;;;5054088;28;20066;-53
2023/02/15 09:16:37;;;;;;;2.58;2.35;;;4.60;63.50;;;;;;5052964;28;20033;-54
2023/02/15 09:19:04;;;;;;;2.70;2.50;;;4.60;63.50;;;;;;5054095;28;20085;-52
2023/02/15 09:21:31;;;;;;;3.00;2.50;;;4.60;63.60;;;;;;5053260;28;20036;-53
2023/02/15 09:24:02;;;;;;;2.63;2.17;;;4.60;63.20;;;;;;5036356;28;20135;-54
2023/02/15 09:26:31;;;;;;;2.38;2.17;;;4.60;63.20;;;;;;5053963;28;20040;-51
2023/02/15 09:29:00;;;;;;;2.15;1.90;;;4.50;63.30;;;;;;5036346;28;20033;-49
2023/02/15 09:31:28;;;;;;;2.20;2.00;;;4.60;63.10;;;;;;5053935;28;20382;-51
2023/02/15 09:33:54;;;;;;;2.20;2.00;;;4.50;62.60;;;;;;5053944;28;20356;-55
2023/02/15 09:36:26;;;;;;;2.08;1.98;;;4.60;62.50;;;;;;5053300;28;20033;-53
2023/02/15 09:38:58;;;;;;;2.05;1.88;;;4.60;62.50;;;;;;5053524;28;20029;-49
2023/02/15 09:41:52;;;;;;;1.83;1.73;;;4.60;62.20;;;;;;5053924;28;20087;-52
2023/02/15 09:44:42;;;;;;;2.00;1.90;;;4.70;62.30;;;;;;5053714;28;20442;-53
2023/02/15 09:47:19;;;;;;;2.13;2.03;;;4.70;61.60;;;;;;5053621;28;20075;-52
2023/02/15 09:50:04;;;;;;;2.28;2.10;;;4.70;61.90;;;;;;5053770;28;20029;-50
2023/02/15 09:52:48;;;;;;;2.63;2.10;;;4.60;61.20;;;;;;5053457;28;20082;-51
2023/02/15 09:55:42;;;;;;;2.35;2.15;;;4.60;61.10;;;;;;5053818;28;20076;-53
2023/02/15 09:58:22;;;;;;;2.60;2.30;;;4.70;60.90;;;;;;5053385;28;20025;-54
2023/02/15 10:01:06;;;;;;;1.88;1.77;;;4.70;61.20;;;;;;5053481;28;20065;-50
2023/02/15 10:03:47;;;;;;;1.90;1.80;;;4.70;60.80;;;;;;5053246;28;20136;-51
2023/02/15 10:06:34;;;;;;;2.05;1.90;;;4.70;61.20;;;;;;5054048;28;20372;-53
2023/02/15 10:09:22;;;;;;;2.17;1.73;;;4.60;61.40;;;;;;5053746;28;20525;-52
2023/02/15 10:12:06;;;;;;;2.03;1.80;;;4.60;61.70;;;;;;5006727;28;20045;-52
2023/02/15 10:14:53;;;;;;;1.80;1.70;;;4.60;60.80;;;;;;5053459;28;20441;-53
2023/02/15 10:17:18;;;;;;;1.73;1.63;;;4.50;60.80;;;;;;5053705;28;20423;-52
2023/02/15 10:20:10;;;;;;;1.70;1.60;;;4.50;60.60;;;;;;5053419;28;20032;-55
2023/02/15 10:22:39;;;;;;;;;;;4.60;60.20;;;;;;5053651;28;20131;-51
2023/02/15 10:25:25;;;;;;;1.98;1.88;;;4.50;59.90;;;;;;5052983;28;19908;-53
2023/02/15 10:27:51;;;;;;;1.88;1.77;;;4.60;60.00;;;;;;5056141;28;20028;-49
2023/02/15 10:30:41;;;;;;;2.45;1.70;;;4.70;60.10;;;;;;5056800;28;20086;-53
2023/02/15 10:33:18;;;;;;;1.90;1.80;;;4.60;59.40;;;;;;5056653;28;20064;-55
2023/02/15 10:35:54;;;;;;;1.90;1.80;;;4.60;59.20;;;;;;5056705;28;20033;-54
2023/02/15 10:38:28;;;;;;;1.80;1.70;;;4.60;59.70;;;;;;5057215;28;20025;-55
2023/02/15 10:41:36;;;;;;;1.80;1.70;;;4.70;60.00;;;;;;5056965;28;20037;-51
2023/02/15 10:44:40;;;;;;;1.77;1.67;;;4.70;59.40;;;;;;5056612;28;20029;-54
2023/02/15 10:47:21;;;;;;;1.48;1.48;;;4.70;58.40;;;;;;5056671;28;20028;-50
2023/02/15 10:49:58;;;;;;;1.92;1.83;;;4.60;59.30;;;;;;5056363;28;20474;-52
2023/02/15 10:52:30;;;;;;;1.60;1.50;;;4.60;58.80;;;;;;5056519;28;20033;-51
2023/02/15 10:55:14;;;;;;;1.55;1.55;;;4.60;58.80;;;;;;5056765;28;20028;-50
2023/02/15 10:57:49;;;;;;;1.77;1.67;;;4.70;59.00;;;;;;5056276;28;20104;-55
2023/02/15 11:00:21;;;;;;;1.98;1.75;;;4.70;59.20;;;;;;5056777;28;20041;-52
2023/02/15 11:02:53;;;;;;;1.83;1.73;;;4.70;59.40;;;;;;5056149;28;20383;-53
2023/02/15 11:05:36;;;;;;;;;;;4.70;59.20;;;;;;5057139;28;20367;-51
2023/02/15 11:08:06;;;;;;;1.70;1.60;;;4.70;58.50;;;;;;5055949;28;19958;-52
2023/02/15 11:10:53;;;;;;;1.52;1.50;;;4.70;59.10;;;;;;5055963;28;20033;-51
2023/02/15 11:13:20;;;;;;;1.92;1.83;;;4.80;58.60;;;;;;5056505;28;20087;-52
2023/02/15 11:15:57;;;;;;;2.22;2.13;;;4.70;58.50;;;;;;5055952;28;20021;-51
2023/02/15 11:18:41;;;;;;;1.50;1.42;;;4.80;58.60;;;;;;5055683;28;20032;-52
2023/02/15 11:21:17;;;;;;;1.50;1.50;;;4.70;58.20;;;;;;5038450;28;20341;-55
2023/02/15 11:23:45;;;;;;;1.85;1.75;;;4.70;57.90;;;;;;5056736;28;20084;-50
2023/02/15 11:26:36;;;;;;;1.67;1.58;;;4.70;58.10;;;;;;5055396;28;20025;-52
2023/02/15 11:29:12;;;;;;;1.80;1.70;;;4.70;58.20;;;;;;5041705;28;20084;-53
2023/02/15 11:31:48;;;;;;;3.75;1.92;;;4.70;58.40;;;;;;5038270;28;20426;-52
2023/02/15 11:34:36;;;;;;;2.00;1.80;;;4.70;58.70;;;;;;5056046;28;20056;-52
2023/02/15 11:37:07;;;;;;;1.77;1.67;;;4.70;58.90;;;;;;5055476;28;20025;-51
2023/02/15 11:39:35;;;;;;;1.92;1.67;;;4.60;58.70;;;;;;5037552;28;20025;-53
2023/02/15 11:42:10;;;;;;;1.75;1.65;;;4.60;58.80;;;;;;5056233;28;20116;-55
2023/02/15 11:44:46;;;;;;;1.70;1.60;;;4.50;58.60;;;;;;5038008;28;20057;-54
2023/02/15 11:47:13;;;;;;;1.88;1.75;;;4.50;59.30;;;;;;5055783;28;20021;-52
2023/02/15 11:49:39;;;;;;;1.50;1.48;;;4.50;59.70;;;;;;5055543;28;20064;-51
2023/02/15 11:52:10;;;;;;;1.65;1.60;;;4.50;59.80;;;;;;5055230;28;20073;-54
2023/02/15 11:54:40;;;;;;;1.80;1.70;;;4.50;59.70;;;;;;5055542;28;20091;-56
2023/02/15 11:57:18;;;;;;;1.90;1.80;;;4.50;58.90;;;;;;5054974;28;20056;-55
2023/02/15 11:59:58;;;;;;;1.67;1.50;;;4.40;58.90;;;;;;5055109;28;20112;-55
2023/02/15 12:02:27;;;;;;;1.58;1.55;;;4.40;59.20;;;;;;5055073;28;20039;-55
2023/02/15 12:05:01;;;;;;;2.10;1.90;;;4.40;59.50;;;;;;5055647;28;20074;-54
2023/02/15 12:07:37;;;;;;;2.25;1.98;;;4.40;59.60;;;;;;5055324;28;20478;-56
2023/02/15 12:10:17;;;;;;;1.90;1.80;;;4.30;59.50;;;;;;5054852;28;20456;-56
2023/02/15 12:12:43;;;;;;;1.70;1.60;;;4.30;59.30;;;;;;5055313;28;20043;-53
2023/02/15 12:15:11;;;;;;;1.75;1.65;;;4.30;59.10;;;;;;5055176;28;20079;-53
2023/02/15 12:17:54;;;;;;;2.22;2.03;;;4.30;59.20;;;;;;5055367;28;20047;-56
2023/02/15 12:20:27;;;;;;;3.40;2.03;;;4.30;59.80;;;;;;5055153;28;20067;-51
2023/02/15 12:23:02;;;;;;;1.90;1.80;;;4.30;59.80;;;;;;5055471;28;20098;-56
2023/02/15 12:25:51;;;;;;;1.88;1.77;;;4.30;59.60;;;;;;5054566;28;20048;-56
2023/02/15 12:28:34;;;;;;;2.20;2.00;;;4.30;59.40;;;;;;5055189;28;20021;-55
2023/02/15 12:31:02;;;;;;;1.92;1.83;;;4.30;59.00;;;;;;5055185;28;20033;-50
2023/02/15 12:33:35;;;;;;;2.00;1.90;;;4.20;59.20;;;;;;5054725;28;20032;-55
2023/02/15 12:36:10;;;;;;;2.03;1.92;;;4.20;59.30;;;;;;5054757;28;20029;-56
2023/02/15 12:38:37;;;;;;;1.75;1.65;;;4.20;59.50;;;;;;5054667;28;20037;-56
2023/02/15 12:41:24;;;;;;;2.20;1.90;;;4.20;59.60;;;;;;5054640;28;20069;-53
2023/02/15 12:44:05;;;;;;;2.03;1.92;;;4.20;59.40;;;;;;5054456;28;20387;-57
2023/02/15 12:46:31;;;;;;;1.90;1.80;;;4.20;59.50;;;;;;5054640;28;20111;-56
2023/02/15 12:49:19;;;;;;;1.98;1.88;;;4.20;59.80;;;;;;5054060;28;20025;-56
2023/02/15 12:51:52;;;;;;;2.00;1.90;;;4.20;59.60;;;;;;5054340;28;20093;-55
2023/02/15 12:54:32;;;;;;;2.00;1.90;;;4.10;59.80;;;;;;5054381;28;20029;-53
2023/02/15 12:56:58;;;;;;;2.03;1.92;;;4.10;59.80;;;;;;5054355;28;20039;-55
2023/02/15 12:59:25;;;;;;;1.95;1.75;;;4.10;60.10;;;;;;5054470;28;20490;-56
2023/02/15 13:01:54;;;;;;;2.10;1.90;;;4.10;60.50;;;;;;5054467;28;20053;-53
2023/02/15 13:04:27;;;;;;;2.05;1.83;;;4.10;60.50;;;;;;5054373;28;20036;-53
2023/02/15 13:06:57;;;;;;;2.28;2.10;;;4.10;60.50;;;;;;5054627;28;20109;-55
2023/02/15 13:09:38;;;;;;;2.20;2.00;;;4.00;60.00;;;;;;5054079;28;20029;-51
2023/02/15 13:12:26;;;;;;;2.55;2.17;;;4.00;60.40;;;;;;5054175;28;20040;-57
2023/02/15 13:14:54;;;;;;;1.90;1.80;;;3.90;60.00;;;;;;5054549;28;20028;-55
2023/02/15 13:17:43;;;;;;;2.08;1.90;;;3.90;60.30;;;;;;5054340;28;20159;-57
2023/02/15 13:20:22;;;;;;;1.80;1.70;;;3.90;60.30;;;;;;5054039;28;20025;-57
2023/02/15 13:22:50;;;;;;;2.00;1.83;;;3.90;60.70;;;;;;5054005;28;20083;-57
2023/02/15 13:25:22;;;;;;;1.85;1.70;;;3.90;60.90;;;;;;5053879;28;20039;-57
2023/02/15 13:28:10;;;;;;;2.10;1.90;;;4.00;61.10;;;;;;5054151;28;20025;-57
2023/02/15 13:30:42;;;;;;;1.88;1.77;;;4.00;61.10;;;;;;5053926;28;20029;-55
2023/02/15 13:33:16;;;;;;;2.33;2.03;;;4.00;61.50;;;;;;5053872;28;20036;-57
2023/02/15 13:35:54;;;;;;;2.17;1.98;;;4.00;61.50;;;;;;5053343;28;20490;-55
2023/02/15 13:38:46;;;;;;;2.10;2.00;;;4.00;62.10;;;;;;5054310;28;20033;-58
2023/02/15 13:41:38;;;;;;;2.63;2.38;;;4.00;60.80;;;;;;5053905;28;20040;-57
2023/02/15 13:44:32;;;;;;;3.13;2.50;;;4.00;60.80;;;;;;5053315;28;20116;-57
2023/02/15 13:47:29;;;;;;;2.38;2.17;;;4.00;61.00;;;;;;5031722;28;20086;-54